Aviation Digital Data Service (ADDS)

Output produced by METARs form (1941 UTC 25 October 2014)
found at http://www.aviationweather.gov/adds/metars/
 
KAOO 251853Z AUTO 27011G21KT 10SM BKN060 18/08 A2979 RMK AO2 SLP087 T01780078
KAOO 251753Z AUTO 28016G23KT 10SM BKN047 BKN055 OVC070 17/08 A2982 RMK AO2 SLP097 T01720078 10189 20072 58028
KAOO 251653Z AUTO 27014KT 10SM FEW041 17/08 A2986 RMK AO2 SLP111 T01720083
KAOO 251553Z AUTO 29014G23KT 10SM CLR 17/08 A2987 RMK AO2 SLP115 T01670078
KAOO 251453Z AUTO 25008KT 10SM BKN039 15/06 A2991 RMK AO2 SLP129 T01500061 58015
KAOO 251353Z AUTO 21010KT 10SM CLR 12/06 A2992 RMK AO2 SLP135 T01220056
KAOO 251253Z AUTO 20009KT 10SM CLR 09/05 A2994 RMK AO2 SLP144 T00940050
KAOO 251153Z AUTO 21004KT 10SM OVC043 07/04 A2995 RMK AO2 SLP149 T00720039 10100 20061 55000
KAOO 251053Z AUTO 00000KT 10SM FEW043 07/03 A2995 RMK AO2 SLP145 T00720033
KAOO 250953Z AUTO 25003KT 10SM BKN048 07/03 A2995 RMK AO2 SLP145 T00720033
KAOO 250853Z AUTO 14003KT 10SM SCT045 07/03 A2995 RMK AO2 SLP146 T00670033 58008
KAOO 250753Z AUTO 22008KT 10SM CLR 08/04 A2996 RMK AO2 SLP148 T00780039
KAOO 250653Z AUTO 00000KT 10SM CLR 08/03 A2998 RMK AO2 SLP154 T00780033
KAOO 250553Z AUTO 24004KT 10SM CLR 09/03 A2998 RMK AO2 SLP152 T00940033 10106 20067 56006
KAOO 250453Z AUTO 20006KT 10SM CLR 09/03 A2998 RMK AO2 SLP154 T00890033 401500067
KAOO 250353Z AUTO 21005KT 10SM CLR 10/03 A2999 RMK AO2 SLP156 T01000028
KAOO 250253Z AUTO 24005KT 10SM CLR 08/03 A3000 RMK AO2 SLP161 T00780033 51005
KAOO 250153Z AUTO 23005KT 10SM CLR 09/03 A2999 RMK AO2 SLP158 T00890033
KAOO 250053Z AUTO 25003KT 10SM CLR 09/03 A2999 RMK AO2 SLP159 T00890033
KAOO 242353Z AUTO 14003KT 10SM CLR 08/03 A2998 RMK AO2 SLP159 T00830033 10150 20083 53007
KAOO 242253Z AUTO 29004KT 10SM CLR 11/03 A2997 RMK AO2 SLP151 T01060033
KAOO 242153Z AUTO 30006KT 10SM CLR 12/04 A2996 RMK AO2 SLP146 T01220044
KAOO 242053Z AUTO 30006KT 10SM CLR 13/04 A2996 RMK AO2 SLP147 T01280039 56003
KAOO 241953Z AUTO 31014KT 10SM CLR 13/02 A2996 RMK AO2 SLP148 T01330022
KAOO 241853Z AUTO 30012KT 10SM CLR 14/03 A2995 RMK AO2 SLP145 T01440033
KAOO 241753Z AUTO 32011KT 10SM CLR 14/03 A2997 RMK AO2 SLP149 T01440028 10150 20072 58019
KAOO 241653Z AUTO 30009KT 10SM CLR 14/04 A3001 RMK AO2 SLP162 T01390039
KAOO 241553Z AUTO 29013KT 10SM CLR 12/04 A3002 RMK AO2 SLP170 T01220039
KAOO 241453Z AUTO 32010KT 10SM CLR 12/04 A3003 RMK AO2 SLP170 T01170044 50000
KAOO 241353Z AUTO 31009KT 10SM CLR 11/04 A3004 RMK AO2 SLP174 T01060044
KAOO 241253Z AUTO 30005KT 10SM FEW022 08/04 A3004 RMK AO2 SLP175 T00830044
KAOO 241153Z AUTO 30006KT 10SM SCT020 07/04 A3003 RMK AO2 SLP171 T00720044 10094 20072 50000
KAOO 241053Z AUTO 33008KT 10SM OVC021 09/05 A3003 RMK AO2 SLP172 T00890050
KAOO 240953Z AUTO 31012KT 10SM OVC021 09/06 A3003 RMK AO2 SLP168 T00890056
KAOO 240853Z AUTO 00000KT 10SM OVC020 09/06 A3001 RMK AO2 SLP163 T00890056 53002
KAOO 240828Z AUTO VRB03KT 10SM BKN020 09/06 A3000 RMK AO2 T00940061
KAOO 240753Z AUTO 29008KT 10SM FEW021 09/06 A2999 RMK AO2 SLP158 T00890056
KAOO 240746Z AUTO 29011KT 10SM SCT021 09/06 A2999 RMK AO2 T00890056